Time;durP1;ratioP1;P1;durP2;ratioP2;P2;SDS_P1;SDS_P2;PMS_P1;PMS_P2;Temp;Humidity;BMP_temperature;BMP_pressure;BME280_temperature;BME280_humidity;BME280_pressure;Samples;Min_cycle;Max_cycle;Signal;HPM_P1;HPM_P2
2022/10/20 00:00:00;;;;;;;1.0;1.0;;;;;;;9.4;100.0;101530;;;;
2022/10/20 00:01:00;;;;;;;1.0;1.0;;;;;;;9.5;100.0;101520;;;;
2022/10/20 00:02:00;;;;;;;1.0;1.0;;;;;;;9.5;100.0;101520;;;;
2022/10/20 00:03:00;;;;;;;1.0;1.0;;;;;;;9.5;100.0;101520;;;;
2022/10/20 00:04:00;;;;;;;1.0;1.0;;;;;;;9.5;100.0;101520;;;;
2022/10/20 00:05:00;;;;;;;1.0;1.0;;;;;;;9.3;100.0;101520;;;;
2022/10/20 00:06:10;;;;;;;1.0;1.0;;;;;;;9.3;100.0;101520;;;;
2022/10/20 00:07:00;;;;;;;1.0;1.0;;;;;;;9.2;100.0;101510;;;;
2022/10/20 00:08:00;;;;;;;1.0;1.0;;;;;;;9.2;100.0;101510;;;;
2022/10/20 00:09:02;;;;;;;1.0;1.0;;;;;;;9.3;100.0;101500;;;;
2022/10/20 00:10:00;;;;;;;1.0;1.0;;;;;;;9.3;100.0;101500;;;;
2022/10/20 00:11:00;;;;;;;1.0;1.0;;;;;;;9.3;100.0;101500;;;;
2022/10/20 00:12:00;;;;;;;1.0;1.0;;;;;;;9.3;100.0;101500;;;;
2022/10/20 00:13:00;;;;;;;1.0;1.0;;;;;;;9.4;100.0;101510;;;;
2022/10/20 00:14:00;;;;;;;1.0;1.0;;;;;;;9.4;100.0;101510;;;;
2022/10/20 00:15:00;;;;;;;0.9;0.9;;;;;;;9.4;100.0;101500;;;;
2022/10/20 00:16:00;;;;;;;0.9;0.9;;;;;;;9.4;100.0;101500;;;;
2022/10/20 00:17:00;;;;;;;0.9;0.9;;;;;;;9.4;100.0;101500;;;;
2022/10/20 00:18:00;;;;;;;0.9;0.9;;;;;;;9.4;100.0;101500;;;;
2022/10/20 00:19:00;;;;;;;0.9;0.9;;;;;;;9.5;100.0;101500;;;;
2022/10/20 00:20:00;;;;;;;0.9;0.9;;;;;;;9.5;100.0;101500;;;;
2022/10/20 00:21:03;;;;;;;0.9;0.9;;;;;;;9.4;100.0;101500;;;;
2022/10/20 00:22:00;;;;;;;0.9;0.9;;;;;;;9.4;100.0;101500;;;;
2022/10/20 00:23:00;;;;;;;0.9;0.9;;;;;;;9.5;100.0;101490;;;;
2022/10/20 00:24:00;;;;;;;0.9;0.9;;;;;;;9.5;100.0;101490;;;;
2022/10/20 00:25:00;;;;;;;0.9;0.9;;;;;;;9.4;100.0;101490;;;;
2022/10/20 00:26:03;;;;;;;0.9;0.9;;;;;;;9.4;100.0;101490;;;;
2022/10/20 00:27:00;;;;;;;0.9;0.9;;;;;;;9.4;100.0;101480;;;;
2022/10/20 00:28:00;;;;;;;0.9;0.9;;;;;;;9.4;100.0;101480;;;;
2022/10/20 00:29:01;;;;;;;0.9;0.9;;;;;;;9.4;100.0;101470;;;;
2022/10/20 00:30:00;;;;;;;0.9;0.9;;;;;;;9.4;100.0;101470;;;;
2022/10/20 00:31:00;;;;;;;0.9;0.9;;;;;;;9.4;100.0;101460;;;;
2022/10/20 00:32:00;;;;;;;0.9;0.9;;;;;;;9.4;100.0;101460;;;;
2022/10/20 00:33:01;;;;;;;0.9;0.9;;;;;;;9.4;100.0;101460;;;;
2022/10/20 00:34:00;;;;;;;0.9;0.9;;;;;;;9.4;100.0;101460;;;;
2022/10/20 00:35:00;;;;;;;2.1;2.0;;;;;;;9.3;100.0;101460;;;;
2022/10/20 00:36:01;;;;;;;2.1;2.0;;;;;;;9.3;100.0;101460;;;;
2022/10/20 00:37:00;;;;;;;2.1;2.0;;;;;;;9.3;100.0;101460;;;;
2022/10/20 00:38:00;;;;;;;2.1;2.0;;;;;;;9.3;100.0;101460;;;;
2022/10/20 00:39:01;;;;;;;2.1;2.0;;;;;;;9.3;100.0;101470;;;;
2022/10/20 00:40:00;;;;;;;2.1;2.0;;;;;;;9.3;100.0;101470;;;;
2022/10/20 00:41:02;;;;;;;2.1;2.0;;;;;;;9.4;100.0;101470;;;;
2022/10/20 00:42:01;;;;;;;2.1;2.0;;;;;;;9.4;100.0;101470;;;;
2022/10/20 00:43:00;;;;;;;2.1;2.0;;;;;;;9.4;100.0;101470;;;;
2022/10/20 00:44:01;;;;;;;2.1;2.0;;;;;;;9.4;100.0;101470;;;;
2022/10/20 00:45:00;;;;;;;2.1;2.0;;;;;;;9.4;100.0;101460;;;;
2022/10/20 00:46:00;;;;;;;2.1;2.0;;;;;;;9.4;100.0;101460;;;;
2022/10/20 00:47:00;;;;;;;2.1;2.0;;;;;;;9.4;100.0;101460;;;;
2022/10/20 00:48:05;;;;;;;2.1;2.0;;;;;;;9.4;100.0;101460;;;;
2022/10/20 00:49:01;;;;;;;2.1;2.0;;;;;;;9.3;100.0;101470;;;;
2022/10/20 00:50:04;;;;;;;2.1;2.0;;;;;;;9.3;100.0;101470;;;;
2022/10/20 00:51:00;;;;;;;2.1;2.0;;;;;;;9.4;100.0;101470;;;;
2022/10/20 00:52:00;;;;;;;2.1;2.0;;;;;;;9.4;100.0;101470;;;;
2022/10/20 00:53:00;;;;;;;2.1;2.0;;;;;;;9.3;100.0;101460;;;;
2022/10/20 00:54:04;;;;;;;2.1;2.0;;;;;;;9.3;100.0;101460;;;;
2022/10/20 00:55:00;;;;;;;1.1;1.1;;;;;;;9.3;100.0;101450;;;;
2022/10/20 00:56:00;;;;;;;1.1;1.1;;;;;;;9.3;100.0;101450;;;;
2022/10/20 00:57:00;;;;;;;1.1;1.1;;;;;;;9.2;100.0;101450;;;;
2022/10/20 00:58:01;;;;;;;1.1;1.1;;;;;;;9.2;100.0;101450;;;;
2022/10/20 00:59:01;;;;;;;1.1;1.1;;;;;;;9.2;100.0;101440;;;;
2022/10/20 01:00:00;;;;;;;1.1;1.1;;;;;;;9.2;100.0;101440;;;;
2022/10/20 01:01:00;;;;;;;1.1;1.1;;;;;;;9.3;100.0;101440;;;;
2022/10/20 01:02:01;;;;;;;1.1;1.1;;;;;;;9.3;100.0;101440;;;;
2022/10/20 01:03:01;;;;;;;1.1;1.1;;;;;;;9.4;100.0;101440;;;;
2022/10/20 01:04:00;;;;;;;1.1;1.1;;;;;;;9.4;100.0;101440;;;;
2022/10/20 01:05:00;;;;;;;1.1;1.1;;;;;;;9.4;100.0;101440;;;;
2022/10/20 01:06:00;;;;;;;1.1;1.1;;;;;;;9.4;100.0;101440;;;;
2022/10/20 01:07:00;;;;;;;1.1;1.1;;;;;;;9.4;100.0;101440;;;;
2022/10/20 01:08:00;;;;;;;1.1;1.1;;;;;;;9.4;100.0;101440;;;;
2022/10/20 01:09:00;;;;;;;1.1;1.1;;;;;;;9.3;100.0;101420;;;;
2022/10/20 01:10:01;;;;;;;1.1;1.1;;;;;;;9.3;100.0;101420;;;;
2022/10/20 01:11:01;;;;;;;1.1;1.1;;;;;;;9.3;100.0;101420;;;;
2022/10/20 01:12:10;;;;;;;1.1;1.1;;;;;;;9.3;100.0;101420;;;;
2022/10/20 01:13:05;;;;;;;1.1;1.1;;;;;;;9.3;100.0;101440;;;;
2022/10/20 01:14:01;;;;;;;1.1;1.1;;;;;;;9.3;100.0;101440;;;;
2022/10/20 01:15:00;;;;;;;0.9;0.9;;;;;;;9.2;100.0;101440;;;;
2022/10/20 01:16:07;;;;;;;0.9;0.9;;;;;;;9.2;100.0;101440;;;;
2022/10/20 01:17:10;;;;;;;0.9;0.9;;;;;;;9.2;100.0;101430;;;;
2022/10/20 01:18:01;;;;;;;0.9;0.9;;;;;;;9.2;100.0;101430;;;;
2022/10/20 01:19:10;;;;;;;0.9;0.9;;;;;;;9.1;100.0;101430;;;;
2022/10/20 01:20:10;;;;;;;0.9;0.9;;;;;;;9.1;100.0;101430;;;;
2022/10/20 01:21:03;;;;;;;0.9;0.9;;;;;;;9.3;100.0;101410;;;;
2022/10/20 01:22:00;;;;;;;0.9;0.9;;;;;;;9.3;100.0;101410;;;;
2022/10/20 01:23:10;;;;;;;0.9;0.9;;;;;;;9.2;100.0;101400;;;;
2022/10/20 01:24:10;;;;;;;0.9;0.9;;;;;;;9.2;100.0;101400;;;;
2022/10/20 01:25:10;;;;;;;0.9;0.9;;;;;;;9.2;100.0;101410;;;;
2022/10/20 01:26:00;;;;;;;0.9;0.9;;;;;;;9.2;100.0;101410;;;;
2022/10/20 01:27:10;;;;;;;0.9;0.9;;;;;;;9.1;100.0;101400;;;;
2022/10/20 01:28:05;;;;;;;0.9;0.9;;;;;;;9.1;100.0;101400;;;;
2022/10/20 01:29:04;;;;;;;0.9;0.9;;;;;;;9.3;100.0;101400;;;;
2022/10/20 01:30:03;;;;;;;0.9;0.9;;;;;;;9.3;100.0;101400;;;;
2022/10/20 01:31:02;;;;;;;0.9;0.9;;;;;;;9.4;100.0;101400;;;;
2022/10/20 01:32:10;;;;;;;0.9;0.9;;;;;;;9.4;100.0;101400;;;;
2022/10/20 01:33:08;;;;;;;0.9;0.9;;;;;;;9.3;100.0;101410;;;;
2022/10/20 01:34:00;;;;;;;0.9;0.9;;;;;;;9.3;100.0;101410;;;;
2022/10/20 01:35:10;;;;;;;1.3;1.3;;;;;;;9.2;100.0;101420;;;;
2022/10/20 01:36:04;;;;;;;1.3;1.3;;;;;;;9.2;100.0;101420;;;;
2022/10/20 01:37:06;;;;;;;1.3;1.3;;;;;;;9.1;100.0;101400;;;;
2022/10/20 01:38:10;;;;;;;1.3;1.3;;;;;;;9.1;100.0;101400;;;;
2022/10/20 01:39:03;;;;;;;1.3;1.3;;;;;;;9.2;100.0;101380;;;;
2022/10/20 01:40:05;;;;;;;1.3;1.3;;;;;;;9.2;100.0;101380;;;;
2022/10/20 01:41:05;;;;;;;1.3;1.3;;;;;;;9.1;100.0;101370;;;;
2022/10/20 01:42:03;;;;;;;1.3;1.3;;;;;;;9.1;100.0;101370;;;;
2022/10/20 01:43:02;;;;;;;1.3;1.3;;;;;;;9.2;100.0;101360;;;;
2022/10/20 01:44:02;;;;;;;1.3;1.3;;;;;;;9.2;100.0;101360;;;;
2022/10/20 01:45:02;;;;;;;1.3;1.3;;;;;;;9.2;100.0;101360;;;;
2022/10/20 01:46:00;;;;;;;1.3;1.3;;;;;;;9.2;100.0;101360;;;;
2022/10/20 01:47:01;;;;;;;1.3;1.3;;;;;;;9.2;100.0;101360;;;;
2022/10/20 01:48:01;;;;;;;1.3;1.3;;;;;;;9.2;100.0;101360;;;;
2022/10/20 01:49:02;;;;;;;1.3;1.3;;;;;;;9.2;100.0;101360;;;;
2022/10/20 01:50:01;;;;;;;1.3;1.3;;;;;;;9.2;100.0;101360;;;;
2022/10/20 01:51:01;;;;;;;1.3;1.3;;;;;;;9.3;100.0;101360;;;;
2022/10/20 01:52:00;;;;;;;1.3;1.3;;;;;;;9.3;100.0;101360;;;;
2022/10/20 01:53:00;;;;;;;1.3;1.3;;;;;;;9.2;100.0;101360;;;;
2022/10/20 01:54:00;;;;;;;1.1;1.1;;;;;;;9.2;100.0;101360;;;;
2022/10/20 01:55:00;;;;;;;1.1;1.1;;;;;;;9.2;100.0;101360;;;;
2022/10/20 01:56:01;;;;;;;1.1;1.1;;;;;;;9.2;100.0;101360;;;;
2022/10/20 01:57:10;;;;;;;1.1;1.1;;;;;;;9.2;100.0;101350;;;;
2022/10/20 01:58:10;;;;;;;1.1;1.1;;;;;;;9.2;100.0;101350;;;;
2022/10/20 01:59:01;;;;;;;1.1;1.1;;;;;;;9.2;100.0;101350;;;;
2022/10/20 02:00:08;;;;;;;1.1;1.1;;;;;;;9.2;100.0;101350;;;;
2022/10/20 02:01:04;;;;;;;1.1;1.1;;;;;;;9.2;100.0;101340;;;;
2022/10/20 02:02:03;;;;;;;1.1;1.1;;;;;;;9.2;100.0;101340;;;;
2022/10/20 02:03:10;;;;;;;1.1;1.1;;;;;;;9.1;100.0;101340;;;;
2022/10/20 02:04:01;;;;;;;1.1;1.1;;;;;;;9.1;100.0;101340;;;;
2022/10/20 02:05:08;;;;;;;1.1;1.1;;;;;;;9.2;100.0;101340;;;;
2022/10/20 02:06:10;;;;;;;1.1;1.1;;;;;;;9.2;100.0;101340;;;;
2022/10/20 02:07:07;;;;;;;1.1;1.1;;;;;;;9.1;100.0;101340;;;;
2022/10/20 02:08:09;;;;;;;1.1;1.1;;;;;;;9.1;100.0;101340;;;;
2022/10/20 02:09:02;;;;;;;1.1;1.1;;;;;;;9.1;100.0;101340;;;;
2022/10/20 02:10:05;;;;;;;1.1;1.1;;;;;;;9.1;100.0;101340;;;;
2022/10/20 02:11:02;;;;;;;1.1;1.1;;;;;;;9.3;100.0;101350;;;;
2022/10/20 02:12:06;;;;;;;1.1;1.1;;;;;;;9.3;100.0;101350;;;;
2022/10/20 02:13:03;;;;;;;1.1;1.1;;;;;;;9.2;100.0;101350;;;;
2022/10/20 02:14:00;;;;;;;1.0;1.0;;;;;;;9.2;100.0;101350;;;;
2022/10/20 02:15:01;;;;;;;1.0;1.0;;;;;;;9.3;100.0;101350;;;;
2022/10/20 02:16:02;;;;;;;1.0;1.0;;;;;;;9.3;100.0;101350;;;;
2022/10/20 02:17:03;;;;;;;1.0;1.0;;;;;;;9.2;100.0;101350;;;;
2022/10/20 02:18:02;;;;;;;1.0;1.0;;;;;;;9.2;100.0;101350;;;;
2022/10/20 02:19:00;;;;;;;1.0;1.0;;;;;;;9.2;100.0;101350;;;;
2022/10/20 02:20:01;;;;;;;1.0;1.0;;;;;;;9.2;100.0;101350;;;;
2022/10/20 02:21:01;;;;;;;1.0;1.0;;;;;;;9.3;100.0;101350;;;;
2022/10/20 02:22:00;;;;;;;1.0;1.0;;;;;;;9.3;100.0;101350;;;;
2022/10/20 02:23:01;;;;;;;1.0;1.0;;;;;;;9.3;100.0;101340;;;;
2022/10/20 02:24:02;;;;;;;1.0;1.0;;;;;;;9.3;100.0;101340;;;;
2022/10/20 02:25:00;;;;;;;1.0;1.0;;;;;;;9.3;100.0;101340;;;;
2022/10/20 02:26:02;;;;;;;1.0;1.0;;;;;;;9.3;100.0;101340;;;;
2022/10/20 02:27:02;;;;;;;1.0;1.0;;;;;;;9.4;100.0;101330;;;;
2022/10/20 02:28:01;;;;;;;1.0;1.0;;;;;;;9.4;100.0;101330;;;;
2022/10/20 02:29:02;;;;;;;1.0;1.0;;;;;;;9.4;100.0;101340;;;;
2022/10/20 02:30:09;;;;;;;1.0;1.0;;;;;;;9.4;100.0;101340;;;;
2022/10/20 02:31:01;;;;;;;1.0;1.0;;;;;;;9.4;100.0;101330;;;;
2022/10/20 02:32:00;;;;;;;1.0;1.0;;;;;;;9.4;100.0;101330;;;;
2022/10/20 02:33:00;;;;;;;1.0;1.0;;;;;;;9.3;100.0;101330;;;;
2022/10/20 02:34:01;;;;;;;0.9;0.9;;;;;;;9.3;100.0;101330;;;;
2022/10/20 02:35:07;;;;;;;0.9;0.9;;;;;;;9.3;100.0;101330;;;;
2022/10/20 02:36:02;;;;;;;0.9;0.9;;;;;;;9.3;100.0;101330;;;;
2022/10/20 02:37:00;;;;;;;0.9;0.9;;;;;;;9.2;100.0;101330;;;;
2022/10/20 02:38:00;;;;;;;0.9;0.9;;;;;;;9.2;100.0;101330;;;;
2022/10/20 02:39:00;;;;;;;0.9;0.9;;;;;;;9.3;100.0;101330;;;;
2022/10/20 02:40:00;;;;;;;0.9;0.9;;;;;;;9.3;100.0;101330;;;;
2022/10/20 02:41:00;;;;;;;0.9;0.9;;;;;;;9.3;100.0;101330;;;;
2022/10/20 02:42:00;;;;;;;0.9;0.9;;;;;;;9.3;100.0;101330;;;;
2022/10/20 02:43:00;;;;;;;0.9;0.9;;;;;;;9.4;100.0;101330;;;;
2022/10/20 02:44:00;;;;;;;0.9;0.9;;;;;;;9.4;100.0;101330;;;;
2022/10/20 02:45:00;;;;;;;0.9;0.9;;;;;;;9.4;100.0;101330;;;;
2022/10/20 02:46:00;;;;;;;0.9;0.9;;;;;;;9.4;100.0;101330;;;;
2022/10/20 02:47:00;;;;;;;0.9;0.9;;;;;;;9.4;100.0;101320;;;;
2022/10/20 02:48:00;;;;;;;0.9;0.9;;;;;;;9.4;100.0;101320;;;;
2022/10/20 02:49:00;;;;;;;0.9;0.9;;;;;;;9.4;100.0;101320;;;;
2022/10/20 02:50:01;;;;;;;0.9;0.9;;;;;;;9.4;100.0;101320;;;;
2022/10/20 02:51:00;;;;;;;0.9;0.9;;;;;;;9.3;100.0;101320;;;;
2022/10/20 02:52:00;;;;;;;0.9;0.9;;;;;;;9.3;100.0;101320;;;;
2022/10/20 02:53:00;;;;;;;0.9;0.9;;;;;;;9.3;100.0;101310;;;;
2022/10/20 02:54:00;;;;;;;1.0;1.0;;;;;;;9.3;100.0;101310;;;;
2022/10/20 02:55:00;;;;;;;1.0;1.0;;;;;;;9.4;100.0;101300;;;;
2022/10/20 02:56:00;;;;;;;1.0;1.0;;;;;;;9.4;100.0;101300;;;;
2022/10/20 02:57:00;;;;;;;1.0;1.0;;;;;;;9.4;100.0;101300;;;;
2022/10/20 02:58:00;;;;;;;1.0;1.0;;;;;;;9.4;100.0;101300;;;;
2022/10/20 02:59:00;;;;;;;1.0;1.0;;;;;;;9.3;100.0;101290;;;;
2022/10/20 03:00:00;;;;;;;1.0;1.0;;;;;;;9.3;100.0;101290;;;;
2022/10/20 03:01:00;;;;;;;1.0;1.0;;;;;;;9.3;100.0;101280;;;;
2022/10/20 03:02:00;;;;;;;1.0;1.0;;;;;;;9.3;100.0;101280;;;;
2022/10/20 03:03:00;;;;;;;1.0;1.0;;;;;;;9.2;100.0;101270;;;;
2022/10/20 03:04:00;;;;;;;1.0;1.0;;;;;;;9.2;100.0;101270;;;;
2022/10/20 03:05:00;;;;;;;1.0;1.0;;;;;;;9.2;100.0;101260;;;;
2022/10/20 03:06:09;;;;;;;1.0;1.0;;;;;;;9.2;100.0;101260;;;;
2022/10/20 03:07:00;;;;;;;1.0;1.0;;;;;;;9.3;100.0;101260;;;;
2022/10/20 03:08:00;;;;;;;1.0;1.0;;;;;;;9.3;100.0;101260;;;;
2022/10/20 03:09:00;;;;;;;1.0;1.0;;;;;;;9.2;100.0;101260;;;;
2022/10/20 03:10:00;;;;;;;1.0;1.0;;;;;;;9.2;100.0;101260;;;;
2022/10/20 03:11:00;;;;;;;1.0;1.0;;;;;;;9.2;100.0;101250;;;;
2022/10/20 03:12:00;;;;;;;1.0;1.0;;;;;;;9.2;100.0;101250;;;;
2022/10/20 03:13:00;;;;;;;1.0;1.0;;;;;;;9.2;100.0;101250;;;;
2022/10/20 03:14:00;;;;;;;1.1;1.1;;;;;;;9.2;100.0;101250;;;;
2022/10/20 03:15:00;;;;;;;1.1;1.1;;;;;;;9.2;100.0;101240;;;;
2022/10/20 03:16:00;;;;;;;1.1;1.1;;;;;;;9.2;100.0;101240;;;;
2022/10/20 03:17:00;;;;;;;1.1;1.1;;;;;;;9.2;100.0;101240;;;;
2022/10/20 03:18:00;;;;;;;1.1;1.1;;;;;;;9.2;100.0;101240;;;;
2022/10/20 03:19:05;;;;;;;1.1;1.1;;;;;;;9.2;100.0;101240;;;;
2022/10/20 03:20:00;;;;;;;1.1;1.1;;;;;;;9.2;100.0;101240;;;;
2022/10/20 03:21:00;;;;;;;1.1;1.1;;;;;;;9.2;100.0;101240;;;;
2022/10/20 03:22:00;;;;;;;1.1;1.1;;;;;;;9.2;100.0;101240;;;;
2022/10/20 03:23:00;;;;;;;1.1;1.1;;;;;;;9.2;100.0;101250;;;;
2022/10/20 03:24:00;;;;;;;1.1;1.1;;;;;;;9.2;100.0;101250;;;;
2022/10/20 03:25:00;;;;;;;1.1;1.1;;;;;;;9.3;100.0;101250;;;;
2022/10/20 03:26:01;;;;;;;1.1;1.1;;;;;;;9.3;100.0;101250;;;;
2022/10/20 03:27:00;;;;;;;1.1;1.1;;;;;;;9.3;100.0;101240;;;;
2022/10/20 03:28:00;;;;;;;1.1;1.1;;;;;;;9.3;100.0;101240;;;;
2022/10/20 03:29:00;;;;;;;1.1;1.1;;;;;;;9.2;100.0;101230;;;;
2022/10/20 03:30:00;;;;;;;1.1;1.1;;;;;;;9.2;100.0;101230;;;;
2022/10/20 03:31:00;;;;;;;1.1;1.1;;;;;;;9.3;100.0;101220;;;;
2022/10/20 03:32:00;;;;;;;1.1;1.1;;;;;;;9.3;100.0;101220;;;;
2022/10/20 03:33:00;;;;;;;1.1;1.1;;;;;;;9.3;100.0;101210;;;;
2022/10/20 03:34:00;;;;;;;1.0;1.0;;;;;;;9.3;100.0;101210;;;;
2022/10/20 03:35:00;;;;;;;1.0;1.0;;;;;;;9.3;100.0;101200;;;;
2022/10/20 03:36:00;;;;;;;1.0;1.0;;;;;;;9.3;100.0;101200;;;;
2022/10/20 03:37:01;;;;;;;1.0;1.0;;;;;;;9.4;100.0;101200;;;;
2022/10/20 03:38:00;;;;;;;1.0;1.0;;;;;;;9.4;100.0;101200;;;;
2022/10/20 03:39:00;;;;;;;1.0;1.0;;;;;;;9.3;100.0;101210;;;;
2022/10/20 03:40:00;;;;;;;1.0;1.0;;;;;;;9.3;100.0;101210;;;;
2022/10/20 03:41:00;;;;;;;1.0;1.0;;;;;;;9.1;100.0;101210;;;;
2022/10/20 03:42:00;;;;;;;1.0;1.0;;;;;;;9.1;100.0;101210;;;;
2022/10/20 03:43:00;;;;;;;1.0;1.0;;;;;;;9.2;100.0;101210;;;;
2022/10/20 03:44:00;;;;;;;1.0;1.0;;;;;;;9.2;100.0;101210;;;;
2022/10/20 03:45:00;;;;;;;1.0;1.0;;;;;;;9.2;100.0;101200;;;;
2022/10/20 03:46:02;;;;;;;1.0;1.0;;;;;;;9.2;100.0;101200;;;;
2022/10/20 03:47:00;;;;;;;1.0;1.0;;;;;;;9.3;100.0;101200;;;;
2022/10/20 03:48:00;;;;;;;1.0;1.0;;;;;;;9.3;100.0;101200;;;;
2022/10/20 03:49:00;;;;;;;1.0;1.0;;;;;;;9.4;100.0;101200;;;;
2022/10/20 03:50:00;;;;;;;1.0;1.0;;;;;;;9.4;100.0;101200;;;;
2022/10/20 03:51:01;;;;;;;1.0;1.0;;;;;;;9.4;100.0;101180;;;;
2022/10/20 03:52:00;;;;;;;1.0;1.0;;;;;;;9.4;100.0;101180;;;;
2022/10/20 03:53:00;;;;;;;1.0;1.0;;;;;;;9.3;100.0;101190;;;;
2022/10/20 03:54:00;;;;;;;1.1;1.1;;;;;;;9.3;100.0;101190;;;;
2022/10/20 03:55:00;;;;;;;1.1;1.1;;;;;;;9.4;100.0;101180;;;;
2022/10/20 03:56:08;;;;;;;1.1;1.1;;;;;;;9.4;100.0;101180;;;;
2022/10/20 03:57:00;;;;;;;1.1;1.1;;;;;;;9.3;100.0;101190;;;;
2022/10/20 03:58:00;;;;;;;1.1;1.1;;;;;;;9.3;100.0;101190;;;;
2022/10/20 03:59:00;;;;;;;1.1;1.1;;;;;;;9.1;100.0;101200;;;;
2022/10/20 04:00:00;;;;;;;1.1;1.1;;;;;;;9.1;100.0;101200;;;;
2022/10/20 04:01:00;;;;;;;1.1;1.1;;;;;;;9.3;100.0;101200;;;;
2022/10/20 04:02:00;;;;;;;1.1;1.1;;;;;;;9.3;100.0;101200;;;;
2022/10/20 04:03:00;;;;;;;1.1;1.1;;;;;;;9.3;100.0;101190;;;;
2022/10/20 04:04:00;;;;;;;1.1;1.1;;;;;;;9.3;100.0;101190;;;;
2022/10/20 04:05:00;;;;;;;1.1;1.1;;;;;;;9.3;100.0;101190;;;;
2022/10/20 04:06:00;;;;;;;1.1;1.1;;;;;;;9.3;100.0;101190;;;;
2022/10/20 04:07:00;;;;;;;1.1;1.1;;;;;;;9.4;100.0;101180;;;;
2022/10/20 04:08:00;;;;;;;1.1;1.1;;;;;;;9.4;100.0;101180;;;;
2022/10/20 04:09:00;;;;;;;1.1;1.1;;;;;;;9.3;100.0;101180;;;;
2022/10/20 04:10:01;;;;;;;1.1;1.1;;;;;;;9.3;100.0;101180;;;;
2022/10/20 04:11:00;;;;;;;1.1;1.1;;;;;;;9.3;100.0;101180;;;;
2022/10/20 04:12:00;;;;;;;1.1;1.1;;;;;;;9.3;100.0;101180;;;;
2022/10/20 04:13:00;;;;;;;1.1;1.1;;;;;;;9.4;100.0;101170;;;;
2022/10/20 04:14:00;;;;;;;1.3;1.3;;;;;;;9.4;100.0;101170;;;;
2022/10/20 04:15:00;;;;;;;1.3;1.3;;;;;;;9.4;100.0;101180;;;;
2022/10/20 04:16:00;;;;;;;1.3;1.3;;;;;;;9.4;100.0;101180;;;;
2022/10/20 04:17:00;;;;;;;1.3;1.3;;;;;;;9.4;100.0;101180;;;;
2022/10/20 04:18:00;;;;;;;1.3;1.3;;;;;;;9.4;100.0;101180;;;;
2022/10/20 04:19:00;;;;;;;1.3;1.3;;;;;;;9.5;100.0;101170;;;;
2022/10/20 04:20:00;;;;;;;1.3;1.3;;;;;;;9.5;100.0;101170;;;;
2022/10/20 04:21:00;;;;;;;1.3;1.3;;;;;;;9.5;100.0;101180;;;;
2022/10/20 04:22:00;;;;;;;1.3;1.3;;;;;;;9.5;100.0;101180;;;;
2022/10/20 04:23:00;;;;;;;1.3;1.3;;;;;;;9.6;100.0;101170;;;;
2022/10/20 04:24:00;;;;;;;1.3;1.3;;;;;;;9.6;100.0;101170;;;;
2022/10/20 04:25:00;;;;;;;1.3;1.3;;;;;;;9.4;100.0;101170;;;;
2022/10/20 04:26:06;;;;;;;1.3;1.3;;;;;;;9.4;100.0;101170;;;;
2022/10/20 04:27:00;;;;;;;1.3;1.3;;;;;;;9.6;100.0;101170;;;;
2022/10/20 04:28:00;;;;;;;1.3;1.3;;;;;;;9.6;100.0;101170;;;;
2022/10/20 04:29:00;;;;;;;1.3;1.3;;;;;;;9.5;100.0;101170;;;;
2022/10/20 04:30:00;;;;;;;1.3;1.3;;;;;;;9.5;100.0;101170;;;;
2022/10/20 04:31:00;;;;;;;1.3;1.3;;;;;;;9.4;100.0;101170;;;;
2022/10/20 04:32:00;;;;;;;1.3;1.3;;;;;;;9.4;100.0;101170;;;;
2022/10/20 04:33:00;;;;;;;1.3;1.3;;;;;;;9.3;100.0;101160;;;;
2022/10/20 04:34:00;;;;;;;1.1;1.1;;;;;;;9.3;100.0;101160;;;;
2022/10/20 04:35:00;;;;;;;1.1;1.1;;;;;;;9.4;100.0;101150;;;;
2022/10/20 04:36:01;;;;;;;1.1;1.1;;;;;;;9.4;100.0;101150;;;;
2022/10/20 04:37:00;;;;;;;1.1;1.1;;;;;;;9.5;100.0;101140;;;;
2022/10/20 04:38:00;;;;;;;1.1;1.1;;;;;;;9.5;100.0;101140;;;;
2022/10/20 04:39:00;;;;;;;1.1;1.1;;;;;;;9.5;100.0;101140;;;;
2022/10/20 04:40:00;;;;;;;1.1;1.1;;;;;;;9.5;100.0;101140;;;;
2022/10/20 04:41:04;;;;;;;1.1;1.1;;;;;;;9.5;100.0;101140;;;;
2022/10/20 04:42:00;;;;;;;1.1;1.1;;;;;;;9.5;100.0;101140;;;;
2022/10/20 04:43:00;;;;;;;1.1;1.1;;;;;;;9.5;100.0;101130;;;;
2022/10/20 04:44:00;;;;;;;1.1;1.1;;;;;;;9.5;100.0;101130;;;;
2022/10/20 04:45:00;;;;;;;1.1;1.1;;;;;;;9.6;100.0;101120;;;;
2022/10/20 04:46:07;;;;;;;1.1;1.1;;;;;;;9.6;100.0;101120;;;;
2022/10/20 04:47:00;;;;;;;1.1;1.1;;;;;;;9.6;100.0;101120;;;;
2022/10/20 04:48:01;;;;;;;1.1;1.1;;;;;;;9.6;100.0;101120;;;;
2022/10/20 04:49:00;;;;;;;1.1;1.1;;;;;;;9.5;100.0;101140;;;;
2022/10/20 04:50:00;;;;;;;1.1;1.1;;;;;;;9.5;100.0;101140;;;;
2022/10/20 04:51:04;;;;;;;1.1;1.1;;;;;;;9.5;100.0;101130;;;;
2022/10/20 04:52:01;;;;;;;1.1;1.1;;;;;;;9.5;100.0;101130;;;;
2022/10/20 04:53:00;;;;;;;1.1;1.1;;;;;;;9.6;100.0;101120;;;;
2022/10/20 04:54:00;;;;;;;0.9;0.9;;;;;;;9.6;100.0;101120;;;;
2022/10/20 04:55:00;;;;;;;0.9;0.9;;;;;;;9.7;100.0;101120;;;;
2022/10/20 04:56:00;;;;;;;0.9;0.9;;;;;;;9.7;100.0;101120;;;;
2022/10/20 04:57:00;;;;;;;0.9;0.9;;;;;;;9.6;100.0;101120;;;;
2022/10/20 04:58:00;;;;;;;0.9;0.9;;;;;;;9.6;100.0;101120;;;;
2022/10/20 04:59:00;;;;;;;0.9;0.9;;;;;;;9.6;100.0;101110;;;;
2022/10/20 05:00:00;;;;;;;0.9;0.9;;;;;;;9.6;100.0;101110;;;;
2022/10/20 05:01:05;;;;;;;0.9;0.9;;;;;;;9.7;100.0;101110;;;;
2022/10/20 05:02:00;;;;;;;0.9;0.9;;;;;;;9.7;100.0;101110;;;;
2022/10/20 05:03:00;;;;;;;0.9;0.9;;;;;;;9.6;100.0;101110;;;;
2022/10/20 05:04:00;;;;;;;0.9;0.9;;;;;;;9.6;100.0;101110;;;;
2022/10/20 05:05:00;;;;;;;0.9;0.9;;;;;;;9.6;100.0;101100;;;;
2022/10/20 05:06:08;;;;;;;0.9;0.9;;;;;;;9.6;100.0;101100;;;;
2022/10/20 05:07:00;;;;;;;0.9;0.9;;;;;;;9.7;100.0;101090;;;;
2022/10/20 05:08:00;;;;;;;0.9;0.9;;;;;;;9.7;100.0;101090;;;;
2022/10/20 05:09:02;;;;;;;0.9;0.9;;;;;;;9.7;100.0;101090;;;;
2022/10/20 05:10:00;;;;;;;0.9;0.9;;;;;;;9.7;100.0;101090;;;;
2022/10/20 05:11:00;;;;;;;0.9;0.9;;;;;;;9.7;100.0;101090;;;;
2022/10/20 05:12:00;;;;;;;0.9;0.9;;;;;;;9.7;100.0;101090;;;;
2022/10/20 05:13:00;;;;;;;0.9;0.9;;;;;;;9.8;100.0;101090;;;;
2022/10/20 05:14:00;;;;;;;1.9;1.8;;;;;;;9.8;100.0;101090;;;;
2022/10/20 05:15:00;;;;;;;1.9;1.8;;;;;;;9.9;100.0;101090;;;;
2022/10/20 05:16:00;;;;;;;1.9;1.8;;;;;;;9.9;100.0;101090;;;;
2022/10/20 05:17:00;;;;;;;1.9;1.8;;;;;;;9.9;100.0;101090;;;;
2022/10/20 05:18:00;;;;;;;1.9;1.8;;;;;;;9.9;100.0;101090;;;;
2022/10/20 05:19:00;;;;;;;1.9;1.8;;;;;;;9.9;100.0;101080;;;;
2022/10/20 05:20:00;;;;;;;1.9;1.8;;;;;;;9.9;100.0;101080;;;;
2022/10/20 05:21:10;;;;;;;1.9;1.8;;;;;;;9.8;100.0;101080;;;;
2022/10/20 05:22:01;;;;;;;1.9;1.8;;;;;;;9.8;100.0;101080;;;;
2022/10/20 05:23:00;;;;;;;1.9;1.8;;;;;;;9.8;100.0;101070;;;;
2022/10/20 05:24:01;;;;;;;1.9;1.8;;;;;;;9.8;100.0;101070;;;;
2022/10/20 05:25:10;;;;;;;1.9;1.8;;;;;;;9.8;100.0;101070;;;;
2022/10/20 05:26:02;;;;;;;1.9;1.8;;;;;;;9.8;100.0;101070;;;;
2022/10/20 05:27:00;;;;;;;1.9;1.8;;;;;;;10.0;100.0;101070;;;;
2022/10/20 05:28:00;;;;;;;1.9;1.8;;;;;;;10.0;100.0;101070;;;;
2022/10/20 05:29:01;;;;;;;1.9;1.8;;;;;;;9.9;100.0;101070;;;;
2022/10/20 05:30:01;;;;;;;1.9;1.8;;;;;;;9.9;100.0;101070;;;;
2022/10/20 05:31:01;;;;;;;1.9;1.8;;;;;;;9.9;100.0;101090;;;;
2022/10/20 05:32:00;;;;;;;1.9;1.8;;;;;;;9.9;100.0;101090;;;;
2022/10/20 05:33:00;;;;;;;1.9;1.8;;;;;;;9.9;100.0;101100;;;;
2022/10/20 05:34:00;;;;;;;1.0;1.0;;;;;;;9.9;100.0;101100;;;;
2022/10/20 05:35:00;;;;;;;1.0;1.0;;;;;;;9.9;100.0;101100;;;;
2022/10/20 05:36:05;;;;;;;1.0;1.0;;;;;;;9.9;100.0;101100;;;;
2022/10/20 05:37:00;;;;;;;1.0;1.0;;;;;;;10.1;100.0;101080;;;;
2022/10/20 05:38:00;;;;;;;1.0;1.0;;;;;;;10.1;100.0;101080;;;;
2022/10/20 05:39:00;;;;;;;1.0;1.0;;;;;;;10.1;100.0;101070;;;;
2022/10/20 05:40:02;;;;;;;1.0;1.0;;;;;;;10.1;100.0;101070;;;;
2022/10/20 05:41:10;;;;;;;1.0;1.0;;;;;;;10.1;100.0;101050;;;;
2022/10/20 05:42:00;;;;;;;1.0;1.0;;;;;;;10.1;100.0;101050;;;;
2022/10/20 05:43:00;;;;;;;1.0;1.0;;;;;;;10.1;100.0;101040;;;;
2022/10/20 05:44:01;;;;;;;1.0;1.0;;;;;;;10.1;100.0;101040;;;;
2022/10/20 05:45:00;;;;;;;1.0;1.0;;;;;;;10.0;100.0;101030;;;;
2022/10/20 05:46:00;;;;;;;1.0;1.0;;;;;;;10.0;100.0;101030;;;;
2022/10/20 05:47:00;;;;;;;1.0;1.0;;;;;;;10.0;100.0;101050;;;;
2022/10/20 05:48:00;;;;;;;1.0;1.0;;;;;;;10.0;100.0;101050;;;;
2022/10/20 05:49:01;;;;;;;1.0;1.0;;;;;;;10.1;100.0;101070;;;;
2022/10/20 05:50:00;;;;;;;1.0;1.0;;;;;;;10.1;100.0;101070;;;;
2022/10/20 05:51:15;;;;;;;1.0;1.0;;;;;;;10.0;100.0;101100;;;;
2022/10/20 05:52:00;;;;;;;1.0;1.0;;;;;;;10.0;100.0;101100;;;;
2022/10/20 05:53:00;;;;;;;1.0;1.0;;;;;;;10.1;100.0;101110;;;;
2022/10/20 05:54:00;;;;;;;1.0;1.0;;;;;;;10.1;100.0;101110;;;;
2022/10/20 05:55:00;;;;;;;1.0;1.0;;;;;;;10.1;100.0;101100;;;;
2022/10/20 05:56:02;;;;;;;1.0;1.0;;;;;;;10.1;100.0;101100;;;;
2022/10/20 05:57:00;;;;;;;1.0;1.0;;;;;;;10.0;100.0;101080;;;;
2022/10/20 05:58:00;;;;;;;1.0;1.0;;;;;;;10.0;100.0;101080;;;;
2022/10/20 05:59:00;;;;;;;1.0;1.0;;;;;;;10.2;100.0;101090;;;;
2022/10/20 06:00:00;;;;;;;1.0;1.0;;;;;;;10.2;100.0;101090;;;;
2022/10/20 06:01:04;;;;;;;1.0;1.0;;;;;;;10.2;100.0;101090;;;;
2022/10/20 06:02:00;;;;;;;1.0;1.0;;;;;;;10.2;100.0;101090;;;;
2022/10/20 06:03:00;;;;;;;1.0;1.0;;;;;;;10.2;100.0;101080;;;;
2022/10/20 06:04:00;;;;;;;1.0;1.0;;;;;;;10.2;100.0;101080;;;;
2022/10/20 06:05:00;;;;;;;1.0;1.0;;;;;;;10.2;100.0;101080;;;;
2022/10/20 06:06:00;;;;;;;1.0;1.0;;;;;;;10.2;100.0;101080;;;;
2022/10/20 06:07:00;;;;;;;1.0;1.0;;;;;;;10.2;100.0;101080;;;;
2022/10/20 06:08:00;;;;;;;1.0;1.0;;;;;;;10.2;100.0;101080;;;;
2022/10/20 06:09:00;;;;;;;1.0;1.0;;;;;;;10.3;100.0;101080;;;;
2022/10/20 06:10:00;;;;;;;1.0;1.0;;;;;;;10.3;100.0;101080;;;;
2022/10/20 06:11:05;;;;;;;1.0;1.0;;;;;;;10.3;100.0;101080;;;;
2022/10/20 06:12:00;;;;;;;1.0;1.0;;;;;;;10.3;100.0;101080;;;;
2022/10/20 06:13:00;;;;;;;1.5;1.4;;;;;;;10.4;100.0;101080;;;;
2022/10/20 06:14:00;;;;;;;1.5;1.4;;;;;;;10.4;100.0;101080;;;;
2022/10/20 06:15:00;;;;;;;1.5;1.4;;;;;;;10.4;100.0;101080;;;;
2022/10/20 06:16:01;;;;;;;1.5;1.4;;;;;;;10.4;100.0;101080;;;;
2022/10/20 06:17:00;;;;;;;1.5;1.4;;;;;;;10.3;100.0;101080;;;;
2022/10/20 06:18:00;;;;;;;1.5;1.4;;;;;;;10.3;100.0;101080;;;;
2022/10/20 06:19:00;;;;;;;1.5;1.4;;;;;;;10.4;100.0;101080;;;;
2022/10/20 06:20:00;;;;;;;1.5;1.4;;;;;;;10.4;100.0;101080;;;;
2022/10/20 06:21:01;;;;;;;1.5;1.4;;;;;;;10.3;100.0;101080;;;;
2022/10/20 06:22:06;;;;;;;1.5;1.4;;;;;;;10.3;100.0;101080;;;;
2022/10/20 06:23:00;;;;;;;1.5;1.4;;;;;;;10.4;100.0;101090;;;;
2022/10/20 06:24:00;;;;;;;1.5;1.4;;;;;;;10.4;100.0;101090;;;;
2022/10/20 06:25:00;;;;;;;1.5;1.4;;;;;;;10.5;100.0;101080;;;;
2022/10/20 06:26:01;;;;;;;1.5;1.4;;;;;;;10.5;100.0;101080;;;;
2022/10/20 06:27:00;;;;;;;1.5;1.4;;;;;;;10.5;100.0;101080;;;;
2022/10/20 06:28:00;;;;;;;1.5;1.4;;;;;;;10.5;100.0;101080;;;;